createdAt,value
2022-11-30T00:01:22.806Z,12.50
2022-11-30T00:03:55.184Z,12.20
2022-11-30T00:06:24.918Z,11.75
2022-11-30T00:08:56.265Z,11.65
2022-11-30T00:11:25.559Z,10.75
2022-11-30T00:13:52.615Z,10.88
2022-11-30T00:16:19.539Z,9.30
2022-11-30T00:18:46.445Z,10.80
2022-11-30T00:21:14.828Z,14.02
2022-11-30T00:23:44.335Z,11.05
2022-11-30T00:26:13.994Z,12.10
2022-11-30T00:28:41.905Z,11.00
2022-11-30T00:31:12.269Z,10.02
2022-11-30T00:33:40.209Z,11.95
2022-11-30T00:36:10.667Z,11.77
2022-11-30T00:38:37.583Z,12.00
2022-11-30T00:41:04.784Z,10.40
2022-11-30T00:43:32.069Z,9.38
2022-11-30T00:45:59.033Z,9.23
2022-11-30T00:48:26.210Z,10.80
2022-11-30T00:50:53.729Z,9.63
2022-11-30T00:53:21.638Z,12.32
2022-11-30T00:55:49.009Z,10.38
2022-11-30T00:58:15.946Z,11.25
2022-11-30T01:00:42.832Z,11.95
2022-11-30T01:03:09.858Z,12.57
2022-11-30T01:05:36.737Z,9.75
2022-11-30T01:08:05.904Z,10.02
2022-11-30T01:10:34.750Z,11.07
2022-11-30T01:13:01.938Z,11.00
2022-11-30T01:15:28.981Z,10.98
2022-11-30T01:17:55.922Z,10.55
2022-11-30T01:20:22.876Z,11.07
2022-11-30T01:22:49.762Z,11.68
2022-11-30T01:25:16.656Z,12.43
2022-11-30T01:27:43.568Z,12.10
2022-11-30T01:30:10.936Z,11.50
2022-11-30T01:32:38.109Z,12.65
2022-11-30T01:35:05.231Z,11.30
2022-11-30T01:37:32.062Z,11.57
2022-11-30T01:39:58.993Z,11.15
2022-11-30T01:42:25.889Z,13.00
2022-11-30T01:44:56.861Z,10.75
2022-11-30T01:47:32.585Z,12.88
2022-11-30T01:50:13.760Z,14.70
2022-11-30T01:52:46.940Z,11.52
2022-11-30T01:55:22.174Z,12.30
2022-11-30T01:57:54.877Z,13.48
2022-11-30T02:00:22.071Z,10.23
2022-11-30T02:03:11.309Z,16.33
2022-11-30T02:05:41.933Z,13.40
2022-11-30T02:08:10.961Z,12.38
2022-11-30T02:10:45.354Z,12.48
2022-11-30T02:13:30.096Z,13.68
2022-11-30T02:15:56.920Z,10.40
2022-11-30T02:18:59.010Z,12.32
2022-11-30T02:21:53.369Z,14.32
2022-11-30T02:24:56.649Z,12.68
2022-11-30T02:28:00.746Z,19.77
2022-11-30T02:30:32.025Z,21.30
2022-11-30T02:33:14.871Z,39.00
2022-11-30T02:35:49.172Z,24.83
2022-11-30T02:38:24.624Z,65.90
2022-11-30T02:40:52.383Z,47.20
2022-11-30T02:43:22.414Z,33.10
2022-11-30T02:45:58.218Z,25.48
2022-11-30T02:48:45.057Z,40.70
2022-11-30T02:51:18.268Z,30.45
2022-11-30T02:53:46.239Z,46.83
2022-11-30T02:56:13.256Z,47.17
2022-11-30T02:58:40.423Z,26.17
2022-11-30T03:01:08.534Z,29.30
2022-11-30T03:03:35.510Z,56.92
2022-11-30T03:06:02.343Z,33.42
2022-11-30T03:08:29.255Z,33.60
2022-11-30T03:10:56.091Z,31.55
2022-11-30T03:13:22.975Z,33.60
2022-11-30T03:15:50.069Z,39.00
2022-11-30T03:18:16.925Z,36.03
2022-11-30T03:20:43.992Z,26.70
2022-11-30T03:23:11.060Z,29.02
2022-11-30T03:25:38.029Z,29.38
2022-11-30T03:28:05.037Z,29.58
2022-11-30T03:30:31.961Z,45.97
2022-11-30T03:32:58.756Z,47.53
2022-11-30T03:35:25.572Z,51.58
2022-11-30T03:37:52.455Z,34.72
2022-11-30T03:40:19.965Z,33.70
2022-11-30T03:42:46.833Z,25.13
2022-11-30T03:45:13.681Z,31.23
2022-11-30T03:47:40.588Z,29.63
2022-11-30T03:50:08.132Z,29.10
2022-11-30T03:52:35.015Z,28.60
2022-11-30T03:55:01.840Z,30.92
2022-11-30T03:57:28.740Z,24.33
2022-11-30T03:59:55.885Z,26.67
2022-11-30T04:02:22.852Z,23.30
2022-11-30T04:04:49.812Z,23.60
2022-11-30T04:07:18.139Z,24.10
2022-11-30T04:09:44.962Z,23.23
2022-11-30T04:12:11.787Z,26.42
2022-11-30T04:14:38.645Z,24.90
2022-11-30T04:17:05.524Z,20.35
2022-11-30T04:19:32.365Z,21.65
2022-11-30T04:21:59.243Z,22.30
2022-11-30T04:24:26.043Z,21.95
2022-11-30T04:26:52.835Z,20.38
2022-11-30T04:29:19.729Z,21.15
2022-11-30T04:31:46.614Z,22.20
2022-11-30T04:34:13.623Z,19.63
2022-11-30T04:36:40.431Z,20.38
2022-11-30T04:39:07.585Z,22.67
2022-11-30T04:41:34.519Z,19.55
2022-11-30T04:44:01.462Z,21.13
2022-11-30T04:46:28.346Z,19.30
2022-11-30T04:48:55.195Z,19.52
2022-11-30T04:51:22.045Z,22.98
2022-11-30T04:53:48.883Z,23.42
2022-11-30T04:56:15.748Z,20.77
2022-11-30T04:58:42.564Z,20.75
2022-11-30T05:01:09.561Z,21.55
2022-11-30T05:03:36.647Z,19.52
2022-11-30T05:06:04.392Z,19.50
2022-11-30T05:08:31.387Z,19.00
2022-11-30T05:10:58.267Z,22.10
2022-11-30T05:13:26.208Z,21.63
2022-11-30T05:15:56.233Z,20.55
2022-11-30T05:18:23.420Z,19.88
2022-11-30T05:20:51.539Z,22.08
2022-11-30T05:23:19.007Z,21.75
2022-11-30T05:25:46.366Z,19.30
2022-11-30T05:28:13.913Z,20.67
2022-11-30T05:30:41.732Z,20.48
2022-11-30T05:33:08.853Z,19.95
2022-11-30T05:35:35.945Z,23.23
2022-11-30T05:38:03.528Z,19.33
2022-11-30T05:40:32.671Z,20.63
2022-11-30T05:43:01.789Z,20.52
2022-11-30T05:45:29.148Z,23.63
2022-11-30T05:47:56.031Z,18.15
2022-11-30T05:50:22.963Z,20.70
2022-11-30T05:52:56.235Z,20.75
2022-11-30T05:55:24.070Z,23.23
2022-11-30T05:57:51.007Z,24.65
2022-11-30T06:00:18.538Z,23.05
2022-11-30T06:02:46.101Z,24.80
2022-11-30T06:05:13.793Z,24.73
2022-11-30T06:07:41.700Z,26.55
2022-11-30T06:10:09.035Z,23.33
2022-11-30T06:12:35.847Z,22.75
2022-11-30T06:15:03.486Z,24.33
2022-11-30T06:17:30.337Z,23.05
2022-11-30T06:19:57.263Z,25.85
2022-11-30T06:22:24.125Z,24.92
2022-11-30T06:24:51.007Z,25.38
2022-11-30T06:27:18.009Z,22.90
2022-11-30T06:29:44.842Z,23.77
2022-11-30T06:32:11.744Z,25.92
2022-11-30T06:34:38.517Z,27.55
2022-11-30T06:37:05.379Z,30.20
2022-11-30T06:40:04.276Z,26.10
2022-11-30T06:42:19.804Z,27.45
2022-11-30T06:44:46.968Z,26.33
2022-11-30T06:47:14.450Z,26.45
2022-11-30T06:49:41.351Z,26.23
2022-11-30T06:52:08.160Z,33.25
2022-11-30T06:54:34.983Z,28.83
2022-11-30T06:57:01.811Z,25.00
2022-11-30T06:59:28.614Z,25.65
2022-11-30T07:01:55.423Z,31.25
2022-11-30T07:04:22.628Z,32.25
2022-11-30T07:06:49.481Z,27.73
2022-11-30T07:09:16.343Z,27.15
2022-11-30T07:11:43.146Z,28.50
2022-11-30T07:14:10.077Z,25.40
2022-11-30T07:16:37.024Z,31.70
2022-11-30T07:19:03.907Z,29.20
2022-11-30T07:21:30.731Z,31.17
2022-11-30T07:24:16.180Z,27.80
2022-11-30T07:26:43.138Z,26.00
2022-11-30T07:29:09.952Z,28.02
2022-11-30T07:31:36.915Z,28.98
2022-11-30T07:34:06.942Z,28.48
2022-11-30T07:36:34.894Z,29.77
2022-11-30T07:39:02.267Z,27.48
2022-11-30T07:41:29.443Z,28.88
2022-11-30T07:43:56.286Z,31.60
2022-11-30T07:46:23.194Z,29.40
2022-11-30T07:48:50.176Z,34.40
2022-11-30T07:51:20.236Z,33.97
2022-11-30T07:53:47.554Z,33.70
2022-11-30T07:56:16.794Z,28.55
2022-11-30T07:58:44.378Z,28.92
2022-11-30T08:01:13.554Z,35.17
2022-11-30T08:03:40.627Z,39.38
2022-11-30T08:06:10.341Z,34.25
2022-11-30T08:08:41.433Z,32.90
2022-11-30T08:11:10.913Z,31.55
2022-11-30T08:13:37.975Z,32.15
2022-11-30T08:16:07.634Z,28.67
2022-11-30T08:18:34.798Z,33.08
2022-11-30T08:21:04.137Z,35.28
2022-11-30T08:23:33.608Z,34.30
2022-11-30T08:26:06.316Z,39.72
2022-11-30T08:28:36.269Z,39.25
2022-11-30T08:31:05.923Z,36.90
2022-11-30T08:33:33.942Z,45.03
2022-11-30T08:36:12.672Z,38.15
2022-11-30T08:38:40.706Z,33.90
2022-11-30T08:41:09.062Z,34.67
2022-11-30T08:43:36.200Z,38.72
2022-11-30T08:46:21.259Z,40.25
2022-11-30T08:49:02.373Z,34.90
2022-11-30T08:52:08.796Z,35.60
2022-11-30T08:54:27.496Z,42.20
2022-11-30T08:56:54.376Z,33.88
2022-11-30T08:59:21.206Z,39.78
2022-11-30T09:01:48.187Z,39.53
2022-11-30T09:04:15.147Z,38.97
2022-11-30T09:06:42.047Z,38.97
2022-11-30T09:09:09.468Z,38.08
2022-11-30T09:11:36.317Z,39.83
2022-11-30T09:14:06.975Z,34.13
2022-11-30T09:16:33.866Z,36.50
2022-11-30T09:19:00.799Z,40.13
2022-11-30T09:21:28.142Z,36.13
2022-11-30T09:23:56.454Z,38.35
2022-11-30T09:26:25.431Z,35.30
2022-11-30T09:28:53.588Z,36.38
2022-11-30T09:31:25.153Z,36.22
2022-11-30T09:33:53.251Z,35.03
2022-11-30T09:36:22.562Z,39.63
2022-11-30T09:38:49.554Z,36.50
2022-11-30T09:41:32.324Z,36.78
2022-11-30T09:44:10.779Z,37.63
2022-11-30T09:46:41.834Z,40.25
2022-11-30T09:49:08.627Z,35.13
2022-11-30T09:51:41.982Z,34.15
2022-11-30T09:54:15.260Z,35.08
2022-11-30T09:56:44.021Z,36.00
2022-11-30T09:59:17.039Z,37.95
2022-11-30T10:01:46.234Z,34.35
2022-11-30T10:04:25.679Z,41.20
2022-11-30T10:07:14.144Z,35.60
2022-11-30T10:10:15.869Z,38.83
2022-11-30T10:12:51.607Z,38.95
2022-11-30T10:15:44.140Z,33.92
2022-11-30T10:18:21.945Z,38.20
2022-11-30T10:20:48.975Z,35.40
2022-11-30T10:23:42.661Z,43.05
2022-11-30T10:26:16.531Z,32.50
2022-11-30T10:28:51.931Z,41.05
2022-11-30T10:31:26.802Z,33.47
2022-11-30T10:33:55.621Z,39.63
2022-11-30T10:36:33.297Z,35.90
2022-11-30T10:39:04.647Z,35.58
2022-11-30T10:41:40.434Z,39.95
2022-11-30T10:44:14.533Z,45.20
2022-11-30T10:46:49.012Z,37.33
2022-11-30T10:49:19.454Z,33.88
2022-11-30T10:51:50.945Z,42.53
2022-11-30T10:54:20.653Z,33.63
2022-11-30T10:56:47.885Z,37.85
2022-11-30T10:59:34.458Z,36.70
2022-11-30T11:02:01.496Z,40.78
2022-11-30T11:04:28.513Z,37.67
2022-11-30T11:06:59.568Z,32.45
2022-11-30T11:09:39.986Z,37.92
2022-11-30T11:12:27.868Z,36.10
2022-11-30T11:15:25.420Z,33.05
2022-11-30T11:17:53.231Z,33.65
2022-11-30T11:20:34.986Z,35.60
2022-11-30T11:23:03.702Z,36.25
2022-11-30T11:25:35.102Z,35.70
2022-11-30T11:28:15.174Z,33.55
2022-11-30T11:30:42.314Z,34.42
2022-11-30T11:33:12.061Z,34.63
2022-11-30T11:35:49.712Z,36.22
2022-11-30T11:38:23.881Z,30.70
2022-11-30T11:41:02.841Z,35.58
2022-11-30T11:43:34.593Z,38.65
2022-11-30T11:46:19.834Z,37.08
2022-11-30T11:48:56.543Z,33.70
2022-11-30T11:51:38.464Z,33.35
2022-11-30T11:54:14.447Z,28.90
2022-11-30T11:56:41.772Z,27.10
2022-11-30T11:59:14.406Z,30.02
2022-11-30T12:02:03.005Z,28.48
2022-11-30T12:04:48.175Z,29.25
2022-11-30T12:07:20.646Z,28.27
2022-11-30T12:10:02.905Z,27.60
2022-11-30T12:12:29.804Z,27.92
2022-11-30T12:14:57.511Z,30.63
2022-11-30T12:17:42.181Z,27.30
2022-11-30T12:20:20.857Z,27.15
2022-11-30T12:23:26.673Z,26.67
2022-11-30T12:26:05.242Z,25.98
2022-11-30T12:28:42.884Z,28.15
2022-11-30T12:31:17.270Z,28.90
2022-11-30T12:34:12.455Z,28.38
2022-11-30T12:37:05.559Z,26.40
2022-11-30T12:39:32.406Z,30.83
2022-11-30T12:42:12.817Z,29.23
2022-11-30T12:45:04.949Z,24.92
2022-11-30T12:47:49.002Z,28.30
2022-11-30T12:50:39.222Z,27.40
2022-11-30T12:53:11.889Z,26.95
2022-11-30T12:56:11.937Z,29.98
2022-11-30T12:58:47.773Z,31.30
2022-11-30T13:01:37.137Z,29.15
2022-11-30T13:04:28.537Z,22.10
2022-11-30T13:07:02.916Z,32.08
2022-11-30T13:09:38.550Z,26.15
2022-11-30T13:12:17.347Z,31.08
2022-11-30T13:14:44.887Z,27.00
2022-11-30T13:17:18.263Z,31.52
2022-11-30T13:20:08.213Z,28.13
2022-11-30T13:22:56.902Z,28.48
2022-11-30T13:26:06.746Z,28.20
2022-11-30T13:28:38.249Z,27.33
2022-11-30T13:31:27.735Z,33.90
2022-11-30T13:33:54.543Z,32.83
2022-11-30T13:36:44.824Z,26.85
2022-11-30T13:39:14.432Z,32.00
2022-11-30T13:41:47.245Z,27.23
2022-11-30T13:44:37.433Z,27.13
2022-11-30T13:47:18.412Z,28.77
2022-11-30T13:49:46.207Z,25.83
2022-11-30T13:52:23.512Z,25.05
2022-11-30T13:54:54.686Z,27.23
2022-11-30T13:57:30.457Z,32.88
2022-11-30T14:00:02.272Z,29.80
2022-11-30T14:02:34.537Z,29.65
2022-11-30T14:05:16.843Z,29.63
2022-11-30T14:07:52.334Z,25.50
2022-11-30T14:10:28.867Z,28.50
2022-11-30T14:13:10.813Z,30.77
2022-11-30T14:15:43.262Z,26.70
2022-11-30T14:18:10.145Z,30.88
2022-11-30T14:20:46.317Z,32.83
2022-11-30T14:23:21.736Z,30.85
2022-11-30T14:25:51.581Z,29.75
2022-11-30T14:28:43.816Z,30.92
2022-11-30T14:31:17.130Z,27.85
2022-11-30T14:33:55.402Z,28.88
2022-11-30T14:36:27.167Z,29.25
2022-11-30T14:38:54.360Z,31.25
2022-11-30T14:41:23.854Z,29.35
2022-11-30T14:44:02.760Z,25.65
2022-11-30T14:46:30.653Z,33.83
2022-11-30T14:49:17.430Z,25.75
2022-11-30T14:52:13.557Z,26.15
2022-11-30T14:54:51.191Z,32.42
2022-11-30T14:57:34.279Z,26.02
2022-11-30T15:00:01.283Z,29.98
2022-11-30T15:02:35.769Z,29.10
2022-11-30T15:05:04.691Z,27.65
2022-11-30T15:07:31.856Z,27.23
2022-11-30T15:10:32.869Z,29.70
2022-11-30T15:13:02.223Z,24.63
2022-11-30T15:15:31.312Z,34.13
2022-11-30T15:18:08.313Z,28.40
2022-11-30T15:20:43.146Z,27.80
2022-11-30T15:23:14.383Z,40.17
2022-11-30T15:25:48.485Z,28.48
2022-11-30T15:28:39.075Z,29.00
2022-11-30T15:31:12.862Z,29.60
2022-11-30T15:33:45.946Z,30.52
2022-11-30T15:36:31.374Z,26.00
2022-11-30T15:39:19.199Z,37.05
2022-11-30T15:41:46.128Z,26.55
2022-11-30T15:44:36.258Z,27.48
2022-11-30T15:47:04.566Z,26.17
2022-11-30T15:49:33.706Z,28.08
2022-11-30T15:52:09.617Z,32.08
2022-11-30T15:54:55.666Z,26.48
2022-11-30T15:57:25.464Z,26.92
2022-11-30T16:00:19.423Z,25.40
2022-11-30T16:02:46.467Z,29.33
2022-11-30T16:05:14.783Z,27.05
2022-11-30T16:07:57.552Z,29.95
2022-11-30T16:10:28.751Z,26.60
2022-11-30T16:12:56.046Z,29.90
2022-11-30T16:15:30.545Z,30.17
2022-11-30T16:18:01.621Z,25.75
2022-11-30T16:20:28.699Z,28.58
2022-11-30T16:22:55.530Z,30.30
2022-11-30T16:25:25.103Z,29.90
2022-11-30T16:27:52.675Z,26.58
2022-11-30T16:30:21.824Z,30.10
2022-11-30T16:32:49.256Z,33.70
2022-11-30T16:35:17.055Z,27.17
2022-11-30T16:37:44.220Z,26.48
2022-11-30T16:40:12.132Z,27.20
2022-11-30T16:42:38.970Z,30.75
2022-11-30T16:45:11.802Z,36.53
2022-11-30T16:47:38.706Z,29.45
2022-11-30T16:50:06.328Z,30.23
2022-11-30T16:52:33.268Z,34.17
2022-11-30T16:55:00.182Z,32.03
2022-11-30T16:57:28.030Z,33.65
2022-11-30T16:59:54.908Z,34.35
2022-11-30T17:02:23.615Z,33.55
2022-11-30T17:04:50.819Z,32.17
2022-11-30T17:07:18.239Z,33.72
2022-11-30T17:09:45.167Z,32.60
2022-11-30T17:12:12.192Z,29.45
2022-11-30T17:14:38.999Z,30.42
2022-11-30T17:17:06.156Z,33.58
2022-11-30T17:19:33.192Z,33.03
2022-11-30T17:22:00.087Z,33.05
2022-11-30T17:24:32.836Z,31.13
2022-11-30T17:27:02.318Z,34.88
2022-11-30T17:29:29.115Z,30.83
2022-11-30T17:31:56.000Z,31.98
2022-11-30T17:34:22.909Z,34.72
2022-11-30T17:36:56.049Z,34.38
2022-11-30T17:39:24.016Z,32.58
2022-11-30T17:41:50.854Z,35.58
2022-11-30T17:44:17.735Z,33.00
2022-11-30T17:46:48.196Z,35.00
2022-11-30T17:49:15.385Z,42.33
2022-11-30T17:51:42.267Z,44.72
2022-11-30T17:54:12.609Z,37.95
2022-11-30T17:56:41.279Z,38.00
2022-11-30T17:59:08.069Z,40.38
2022-11-30T18:01:35.072Z,40.95
2022-11-30T18:04:01.984Z,39.45
2022-11-30T18:06:29.081Z,40.60
2022-11-30T18:08:57.922Z,41.15
2022-11-30T18:11:27.663Z,39.13
2022-11-30T18:13:56.701Z,44.65
2022-11-30T18:16:29.434Z,45.92
2022-11-30T18:18:58.544Z,38.55
2022-11-30T18:21:28.205Z,38.65
2022-11-30T18:23:55.482Z,40.85
2022-11-30T18:26:24.137Z,47.95
2022-11-30T18:28:53.293Z,44.92
2022-11-30T18:31:20.535Z,47.50
2022-11-30T18:33:47.835Z,43.35
2022-11-30T18:36:14.754Z,49.17
2022-11-30T18:38:41.766Z,53.33
2022-11-30T18:41:08.767Z,52.40
2022-11-30T18:43:38.074Z,49.47
2022-11-30T18:46:08.364Z,46.17
2022-11-30T18:48:36.296Z,54.10
2022-11-30T18:51:13.959Z,44.42
2022-11-30T18:53:41.763Z,48.88
2022-11-30T18:56:19.972Z,48.33
2022-11-30T18:58:47.910Z,46.20
2022-11-30T19:01:16.154Z,47.58
2022-11-30T19:03:43.710Z,47.50
2022-11-30T19:06:11.138Z,58.15
2022-11-30T19:08:40.316Z,45.55
2022-11-30T19:11:09.451Z,53.15
2022-11-30T19:13:36.979Z,47.30
2022-11-30T19:16:06.755Z,45.22
2022-11-30T19:18:33.685Z,47.35
2022-11-30T19:21:00.954Z,48.85
2022-11-30T19:23:28.209Z,44.40
2022-11-30T19:26:00.639Z,47.13
2022-11-30T19:28:30.114Z,44.83
2022-11-30T19:30:58.500Z,41.80
2022-11-30T19:33:26.849Z,44.55
2022-11-30T19:35:53.658Z,39.42
2022-11-30T19:38:20.491Z,43.17
2022-11-30T19:40:47.394Z,39.60
2022-11-30T19:43:14.256Z,44.20
2022-11-30T19:45:41.159Z,41.97
2022-11-30T19:48:07.974Z,36.85
2022-11-30T19:50:34.795Z,36.28
2022-11-30T19:53:01.679Z,38.85
2022-11-30T19:55:28.537Z,35.47
2022-11-30T19:57:55.633Z,33.30
2022-11-30T20:00:22.493Z,34.90
2022-11-30T20:02:50.163Z,32.50
2022-11-30T20:05:17.863Z,32.00
2022-11-30T20:07:44.743Z,30.92
2022-11-30T20:10:15.233Z,32.55
2022-11-30T20:12:42.210Z,33.45
2022-11-30T20:15:09.570Z,28.63
2022-11-30T20:17:36.530Z,27.63
2022-11-30T20:20:03.763Z,29.48
2022-11-30T20:22:32.741Z,29.08
2022-11-30T20:24:59.659Z,31.52
2022-11-30T20:27:26.683Z,27.95
2022-11-30T20:29:53.761Z,29.63
2022-11-30T20:32:20.633Z,29.08
2022-11-30T20:34:47.772Z,29.85
2022-11-30T20:37:16.881Z,31.05
2022-11-30T20:39:46.133Z,25.50
2022-11-30T20:42:13.608Z,25.67
2022-11-30T20:44:40.914Z,30.13
2022-11-30T20:47:08.079Z,25.95
2022-11-30T20:49:34.988Z,28.25
2022-11-30T20:52:01.841Z,25.33
2022-11-30T20:54:30.542Z,30.35
2022-11-30T20:56:58.898Z,23.95
2022-11-30T20:59:26.838Z,22.60
2022-11-30T21:01:55.918Z,23.27
2022-11-30T21:04:25.719Z,24.05
2022-11-30T21:06:53.438Z,24.70
2022-11-30T21:09:21.023Z,26.75
2022-11-30T21:11:49.044Z,25.20
2022-11-30T21:14:17.799Z,22.08
2022-11-30T21:16:44.749Z,27.92
2022-11-30T21:19:14.448Z,20.83
2022-11-30T21:21:41.392Z,21.67
2022-11-30T21:24:09.223Z,24.67
2022-11-30T21:26:38.951Z,22.90
2022-11-30T21:29:10.790Z,20.25
2022-11-30T21:31:37.848Z,24.70
2022-11-30T21:34:04.891Z,22.85
2022-11-30T21:36:32.055Z,20.75
2022-11-30T21:39:05.665Z,20.52
2022-11-30T21:41:38.283Z,22.35
2022-11-30T21:44:06.477Z,19.83
2022-11-30T21:46:34.157Z,20.02
2022-11-30T21:49:01.562Z,20.50
2022-11-30T21:51:29.861Z,26.35
2022-11-30T21:54:00.567Z,30.25
2022-11-30T21:56:33.288Z,26.38
2022-11-30T21:59:00.735Z,27.00
2022-11-30T22:01:33.502Z,25.40
2022-11-30T22:04:01.387Z,28.02
2022-11-30T22:06:29.719Z,26.85
2022-11-30T22:09:02.827Z,25.05
2022-11-30T22:11:31.065Z,22.63
2022-11-30T22:13:58.001Z,24.33
2022-11-30T22:16:29.927Z,21.90
2022-11-30T22:19:01.225Z,20.13
2022-11-30T22:21:30.370Z,25.80
2022-11-30T22:24:02.685Z,24.35
2022-11-30T22:26:30.423Z,26.33
2022-11-30T22:29:05.804Z,21.55
2022-11-30T22:31:36.181Z,21.13
2022-11-30T22:34:03.558Z,24.38
2022-11-30T22:36:32.229Z,20.98
2022-11-30T22:39:01.765Z,20.75
2022-11-30T22:41:29.514Z,20.85
2022-11-30T22:43:57.594Z,22.88
2022-11-30T22:46:29.764Z,21.65
2022-11-30T22:49:00.293Z,21.77
2022-11-30T22:51:29.192Z,19.85
2022-11-30T22:53:56.520Z,21.80
2022-11-30T22:56:32.424Z,20.48
2022-11-30T22:59:00.947Z,20.63
2022-11-30T23:01:42.043Z,22.48
2022-11-30T23:04:15.018Z,20.13
2022-11-30T23:06:43.317Z,21.52
2022-11-30T23:09:16.204Z,21.08
2022-11-30T23:11:43.324Z,22.55
2022-11-30T23:14:12.111Z,21.23
2022-11-30T23:16:40.387Z,20.67
2022-11-30T23:19:08.367Z,24.45
2022-11-30T23:21:41.975Z,26.98
2022-11-30T23:24:20.721Z,20.45
2022-11-30T23:26:48.295Z,22.67
2022-11-30T23:29:16.923Z,21.10
2022-11-30T23:31:44.902Z,18.73
2022-11-30T23:34:15.530Z,19.60
2022-11-30T23:36:42.585Z,18.40
2022-11-30T23:39:13.115Z,18.27
2022-11-30T23:41:40.508Z,16.98
2022-11-30T23:44:07.832Z,17.30
2022-11-30T23:46:35.578Z,17.42
2022-11-30T23:49:02.889Z,19.95
2022-11-30T23:51:29.801Z,20.65
2022-11-30T23:53:56.830Z,15.88
2022-11-30T23:56:24.706Z,20.63
2022-11-30T23:58:52.295Z,18.13
